Time;durP1;ratioP1;P1;durP2;ratioP2;P2;SDS_P1;SDS_P2;PMS_P1;PMS_P2;Temp;Humidity;BMP_temperature;BMP_pressure;BME280_temperature;BME280_humidity;BME280_pressure;Samples;Min_cycle;Max_cycle;Signal;HPM_P1;HPM_P2
2022/01/28 00:00:50;;;;;;;5.95;5.35;;;4.80;99.90;;;;;;5031371;28;20382;-50
2022/01/28 00:03:16;;;;;;;8.30;5.28;;;4.80;99.90;;;;;;5032733;28;20021;-47
2022/01/28 00:05:42;;;;;;;6.95;4.95;;;4.80;99.90;;;;;;5032757;28;20530;-48
2022/01/28 00:08:08;;;;;;;5.43;4.60;;;4.80;99.90;;;;;;5031553;28;20034;-48
2022/01/28 00:10:37;;;;;;;9.35;5.32;;;4.80;99.90;;;;;;5031567;28;20096;-48
2022/01/28 00:38:00;;;;;;;7.20;5.03;;;5.10;99.90;;;;;;4993006;28;20042;-49
2022/01/28 00:40:19;;;;;;;7.38;4.60;;;5.00;99.90;;;;;;4992765;28;20054;-53
2022/01/28 00:42:45;;;;;;;6.70;4.63;;;5.00;99.90;;;;;;4992746;28;20062;-46
2022/01/28 00:45:10;;;;;;;4.50;4.10;;;5.00;99.90;;;;;;4992731;28;20085;-48
2022/01/28 00:47:36;;;;;;;8.52;5.45;;;5.00;99.90;;;;;;4991702;28;20473;-53
2022/01/28 00:50:02;;;;;;;6.18;5.43;;;5.00;99.90;;;;;;4992871;28;20058;-46
2022/01/28 00:52:27;;;;;;;8.43;5.80;;;5.10;99.90;;;;;;4992730;28;20109;-52
2022/01/28 00:54:53;;;;;;;12.27;4.97;;;5.10;99.90;;;;;;4992413;28;20094;-50
2022/01/28 00:57:18;;;;;;;7.63;4.70;;;5.10;99.90;;;;;;4992734;28;20033;-50
2022/01/28 00:59:44;;;;;;;5.10;4.45;;;5.20;99.90;;;;;;4992519;28;20034;-51
2022/01/28 01:02:10;;;;;;;5.82;4.15;;;5.20;99.90;;;;;;4992518;28;20027;-50
2022/01/28 01:04:35;;;;;;;6.50;4.80;;;5.20;99.90;;;;;;4992352;28;20029;-51
2022/01/28 01:07:01;;;;;;;5.15;4.57;;;5.20;99.90;;;;;;4991281;28;20033;-50
2022/01/28 01:09:27;;;;;;;7.03;4.00;;;5.20;99.90;;;;;;4992474;28;20379;-49
2022/01/28 01:11:53;;;;;;;6.15;4.63;;;5.20;99.90;;;;;;5006995;28;20034;-46
2022/01/28 01:14:18;;;;;;;5.60;4.13;;;5.20;99.90;;;;;;4992045;28;20375;-50
2022/01/28 01:17:01;;;;;;;8.48;4.55;;;5.20;99.90;;;;;;5007440;28;20486;-52
2022/01/28 01:19:30;;;;;;;5.63;4.35;;;5.10;99.90;;;;;;4992215;28;20053;-50
2022/01/28 01:21:58;;;;;;;6.05;4.65;;;5.10;99.90;;;;;;4992237;28;20037;-51
2022/01/28 01:24:27;;;;;;;9.60;4.47;;;5.10;99.90;;;;;;4991983;28;20026;-50
2022/01/28 01:26:53;;;;;;;6.80;4.85;;;5.10;99.90;;;;;;4992237;28;20445;-49
2022/01/28 01:29:21;;;;;;;5.38;4.03;;;5.10;99.90;;;;;;5007317;28;20022;-53
2022/01/28 01:31:47;;;;;;;6.22;4.15;;;5.10;99.90;;;;;;4992202;28;20023;-49
2022/01/28 01:34:17;;;;;;;5.50;4.13;;;5.10;99.90;;;;;;4991935;28;20030;-47
2022/01/28 01:36:43;;;;;;;4.55;4.15;;;5.10;99.90;;;;;;4991979;28;20038;-45
2022/01/28 01:39:10;;;;;;;5.35;4.45;;;5.10;99.90;;;;;;4992203;28;20125;-49
2022/01/28 01:41:57;;;;;;;9.73;5.13;;;5.10;99.90;;;;;;4992183;28;20068;-48
2022/01/28 01:52:20;;;;;;;6.65;5.20;;;5.20;99.90;;;;;;4992494;28;20092;-49
2022/01/28 01:54:46;;;;;;;5.43;4.43;;;5.10;99.90;;;;;;4991803;28;20482;-49
2022/01/28 01:57:13;;;;;;;6.85;4.80;;;5.10;99.90;;;;;;4992191;28;20033;-49
2022/01/28 01:59:41;;;;;;;11.40;5.60;;;5.10;99.90;;;;;;4992041;28;20035;-51
2022/01/28 02:02:07;;;;;;;8.50;5.18;;;5.10;99.90;;;;;;4992442;28;20398;-48
2022/01/28 02:04:33;;;;;;;7.72;5.18;;;5.00;99.90;;;;;;4991754;28;20453;-52
2022/01/28 02:07:00;;;;;;;6.00;4.82;;;5.00;99.90;;;;;;4991952;28;20019;-49
2022/01/28 02:09:26;;;;;;;10.02;5.63;;;5.00;99.90;;;;;;4991949;28;20023;-48
2022/01/28 02:11:52;;;;;;;10.40;5.20;;;4.90;99.90;;;;;;4991957;28;20033;-50
2022/01/28 02:14:17;;;;;;;4.80;4.25;;;4.90;99.90;;;;;;4991803;28;20509;-42
2022/01/28 02:16:43;;;;;;;6.78;4.57;;;4.80;99.90;;;;;;4992098;28;20042;-53
2022/01/28 02:19:08;;;;;;;5.38;4.30;;;4.70;99.90;;;;;;4991293;28;20026;-50
2022/01/28 02:21:44;;;;;;;7.50;3.90;;;4.70;99.90;;;;;;4991751;28;20430;-50
2022/01/28 02:24:10;;;;;;;;;;;4.70;99.90;;;;;;4993743;28;20034;-47
2022/01/28 02:26:37;;;;;;;4.32;3.00;;;4.70;99.90;;;;;;4995456;28;20372;-43
2022/01/28 02:29:09;;;;;;;3.38;2.75;;;4.70;99.90;;;;;;4995483;28;20046;-49
2022/01/28 02:31:35;;;;;;;5.18;2.67;;;4.70;99.90;;;;;;4995303;28;20034;-47
2022/01/28 02:34:01;;;;;;;6.80;2.60;;;4.80;99.90;;;;;;4995121;28;20027;-49
2022/01/28 02:36:27;;;;;;;5.70;2.40;;;4.80;99.90;;;;;;4994986;28;20035;-47
2022/01/28 02:38:58;;;;;;;7.03;2.70;;;4.90;99.90;;;;;;4995263;28;20030;-43
2022/01/28 02:41:26;;;;;;;9.02;2.97;;;4.90;99.90;;;;;;4995383;28;20564;-48
2022/01/28 02:44:15;;;;;;;3.40;2.60;;;5.00;99.90;;;;;;4994916;28;20053;-49
2022/01/28 02:46:53;;;;;;;7.13;2.60;;;5.00;99.90;;;;;;4995103;28;20019;-47
2022/01/28 02:49:19;;;;;;;4.65;2.42;;;5.00;99.90;;;;;;4995223;28;20022;-49
2022/01/28 02:51:45;;;;;;;10.27;2.50;;;5.00;99.90;;;;;;4995184;28;20027;-50
2022/01/28 02:54:16;;;;;;;4.20;2.58;;;4.90;99.90;;;;;;4994827;28;20034;-52
2022/01/28 02:56:51;;;;;;;8.70;2.35;;;4.90;99.90;;;;;;4995009;28;20028;-47
2022/01/28 02:59:17;;;;;;;4.47;2.42;;;4.90;99.90;;;;;;4994894;28;20038;-52
2022/01/28 03:01:42;;;;;;;5.53;2.28;;;4.80;99.90;;;;;;4995030;28;20402;-48
2022/01/28 03:04:11;;;;;;;6.78;2.72;;;4.80;99.90;;;;;;4994531;28;20022;-42
2022/01/28 03:06:36;;;;;;;3.70;2.65;;;4.80;99.90;;;;;;4994887;28;20061;-48
2022/01/28 03:09:13;;;;;;;3.50;2.60;;;4.80;99.90;;;;;;4994824;28;20061;-51
2022/01/28 03:11:44;;;;;;;4.78;2.88;;;4.80;99.90;;;;;;4994699;28;20034;-49
2022/01/28 03:14:19;;;;;;;3.72;2.90;;;4.80;99.90;;;;;;4994891;28;20109;-51
2022/01/28 03:19:28;;;;;;;10.27;3.40;;;4.70;99.90;;;;;;4994527;28;20034;-50
2022/01/28 03:21:55;;;;;;;4.70;3.85;;;4.70;99.90;;;;;;4994531;28;20102;-51
2022/01/28 03:24:22;;;;;;;4.50;3.20;;;4.70;99.90;;;;;;4994267;28;20022;-48
2022/01/28 03:26:51;;;;;;;7.63;3.63;;;4.70;99.90;;;;;;4994535;28;20027;-52
2022/01/28 03:29:17;;;;;;;7.22;3.55;;;4.70;99.90;;;;;;4994329;28;20510;-51
2022/01/28 03:31:42;;;;;;;10.20;4.70;;;4.70;99.90;;;;;;4994528;28;20110;-47
2022/01/28 03:34:08;;;;;;;6.00;3.45;;;4.80;99.90;;;;;;4994300;28;20501;-52
2022/01/28 03:36:34;;;;;;;4.90;3.20;;;4.70;99.90;;;;;;4993221;28;20097;-49
2022/01/28 03:39:00;;;;;;;5.78;3.00;;;4.70;99.90;;;;;;4994153;28;20106;-49
2022/01/28 03:41:25;;;;;;;4.22;2.55;;;4.70;99.90;;;;;;4994082;28;20109;-44
2022/01/28 03:43:58;;;;;;;2.90;2.60;;;4.80;99.90;;;;;;4993898;28;20037;-51
2022/01/28 03:46:25;;;;;;;4.65;2.70;;;4.80;99.90;;;;;;4993972;28;20027;-52
2022/01/28 03:48:51;;;;;;;6.75;2.55;;;4.80;99.90;;;;;;4993921;28;20037;-55
2022/01/28 03:51:17;;;;;;;5.03;2.88;;;4.80;99.90;;;;;;4993995;28;20465;-45
2022/01/28 03:53:42;;;;;;;9.70;3.00;;;4.80;99.90;;;;;;4993605;28;20034;-51
2022/01/28 03:56:08;;;;;;;7.97;2.42;;;4.90;99.90;;;;;;4993754;28;20442;-52
2022/01/28 03:58:33;;;;;;;5.55;2.75;;;5.00;99.90;;;;;;4993727;28;20398;-47
2022/01/28 04:00:59;;;;;;;9.63;2.47;;;5.10;99.90;;;;;;4993673;28;20035;-48
2022/01/28 04:11:29;;;;;;;4.38;1.65;;;5.10;99.90;;;;;;4993409;28;20480;-48
2022/01/28 04:14:07;;;;;;;8.23;2.58;;;5.20;99.90;;;;;;4992968;28;20371;-49
2022/01/28 04:17:19;;;;;;;10.70;2.03;;;5.10;99.90;;;;;;4993317;28;20058;-48
2022/01/28 04:19:19;;;;;;;9.55;2.28;;;5.30;99.90;;;;;;4992516;28;20461;-53
2022/01/28 04:21:45;;;;;;;4.82;2.35;;;5.30;99.90;;;;;;4993183;28;20022;-52
2022/01/28 04:24:11;;;;;;;6.63;2.17;;;5.20;99.90;;;;;;4992946;28;20053;-51
2022/01/28 04:26:36;;;;;;;6.72;2.85;;;5.30;99.90;;;;;;4993060;28;20117;-52
2022/01/28 04:29:02;;;;;;;9.38;2.17;;;5.30;99.90;;;;;;4993094;28;20110;-44
2022/01/28 04:31:27;;;;;;;4.53;2.22;;;5.20;99.90;;;;;;4992912;28;20041;-44
2022/01/28 04:33:54;;;;;;;12.18;2.60;;;5.20;99.90;;;;;;4991459;28;20026;-48
2022/01/28 04:36:22;;;;;;;7.38;1.90;;;5.10;99.90;;;;;;4992821;28;20494;-48
2022/01/28 04:39:01;;;;;;;5.55;2.70;;;5.10;99.90;;;;;;4993756;28;20080;-50
2022/01/28 04:41:39;;;;;;;5.55;2.33;;;5.00;99.90;;;;;;4994380;28;20014;-47
2022/01/28 04:44:18;;;;;;;5.65;2.03;;;4.90;99.90;;;;;;4993696;28;20053;-43
2022/01/28 04:47:02;;;;;;;5.22;2.13;;;4.90;99.90;;;;;;4992537;28;20520;-52
2022/01/28 04:49:45;;;;;;;9.50;2.35;;;4.90;99.90;;;;;;4992753;28;20041;-53
2022/01/28 04:57:25;;;;;;;7.95;2.20;;;4.90;99.90;;;;;;4993278;28;20027;-52
2022/01/28 05:05:48;;;;;;;8.70;1.98;;;4.90;99.90;;;;;;4992371;28;20064;-52
2022/01/28 05:16:25;;;;;;;1.85;1.45;;;4.80;99.90;;;;;;4992340;28;20038;-42
2022/01/28 05:24:50;;;;;;;3.05;2.30;;;4.90;99.90;;;;;;4992068;28;20034;-48
2022/01/28 05:27:11;;;;;;;4.22;2.17;;;4.90;99.90;;;;;;4992274;28;20113;-53
2022/01/28 05:29:39;;;;;;;5.78;2.45;;;4.90;99.90;;;;;;4992188;28;20084;-49
2022/01/28 05:32:06;;;;;;;6.80;2.00;;;4.80;99.90;;;;;;4992500;28;20026;-48
2022/01/28 05:34:31;;;;;;;3.92;2.10;;;4.90;99.90;;;;;;4991825;28;20548;-44
2022/01/28 05:36:57;;;;;;;11.63;2.78;;;4.90;99.90;;;;;;4992154;28;20042;-50
2022/01/28 05:39:22;;;;;;;5.20;1.75;;;4.90;99.90;;;;;;4992049;28;20033;-53
2022/01/28 05:41:48;;;;;;;5.82;1.80;;;5.00;99.90;;;;;;4992206;28;20050;-50
2022/01/28 05:44:13;;;;;;;3.78;2.10;;;4.90;99.90;;;;;;4992016;28;20023;-50
2022/01/28 05:46:39;;;;;;;15.82;3.05;;;4.90;99.90;;;;;;4992080;28;20552;-46
2022/01/28 05:49:05;;;;;;;6.22;2.40;;;4.90;99.90;;;;;;4992079;28;20085;-53
2022/01/28 05:51:31;;;;;;;5.07;2.67;;;5.00;99.90;;;;;;4992040;28;20022;-47
2022/01/28 05:53:59;;;;;;;7.25;2.28;;;5.00;99.90;;;;;;4991865;28;20057;-47
2022/01/28 05:56:27;;;;;;;5.40;1.70;;;5.00;99.90;;;;;;4991973;28;20054;-51
2022/01/28 05:58:53;;;;;;;8.63;2.28;;;5.00;99.90;;;;;;4993195;28;20026;-42
2022/01/28 06:01:20;;;;;;;5.55;2.03;;;5.00;99.90;;;;;;4996244;28;20493;-51
2022/01/28 06:03:47;;;;;;;9.63;2.33;;;5.00;99.90;;;;;;4995440;28;20033;-49
2022/01/28 06:06:21;;;;;;;3.28;1.77;;;5.00;99.90;;;;;;4995720;28;20023;-50
2022/01/28 06:08:51;;;;;;;6.88;2.25;;;5.10;99.90;;;;;;4995858;28;20405;-43
2022/01/28 06:11:17;;;;;;;4.20;1.73;;;5.10;99.90;;;;;;4995496;28;20061;-51
2022/01/28 06:13:43;;;;;;;14.75;2.05;;;5.00;99.90;;;;;;4995405;28;20060;-48
2022/01/28 06:16:12;;;;;;;12.07;2.33;;;5.10;99.90;;;;;;4995456;28;20026;-51
2022/01/28 06:18:38;;;;;;;7.13;2.25;;;5.10;99.90;;;;;;4995219;28;20030;-45
2022/01/28 06:21:04;;;;;;;31.20;4.68;;;5.20;99.90;;;;;;4995442;28;20027;-44
2022/01/28 06:23:31;;;;;;;10.13;2.20;;;5.20;99.90;;;;;;4995165;28;20076;-47
2022/01/28 06:25:56;;;;;;;9.90;2.30;;;5.30;99.90;;;;;;4995224;28;20023;-48
2022/01/28 06:28:22;;;;;;;8.60;1.90;;;5.30;99.90;;;;;;4995198;28;20030;-48
2022/01/28 06:30:47;;;;;;;9.35;2.55;;;5.30;99.90;;;;;;4995323;28;20049;-44
2022/01/28 06:33:14;;;;;;;7.13;3.50;;;5.20;99.90;;;;;;4995120;28;20066;-51
2022/01/28 06:35:40;;;;;;;5.28;2.55;;;5.20;99.90;;;;;;5030059;22;20055;-51
2022/01/28 06:38:06;;;;;;;7.68;2.13;;;5.20;99.90;;;;;;5054702;28;20108;-50
2022/01/28 06:40:32;;;;;;;6.88;1.92;;;5.30;99.90;;;;;;5054284;28;20099;-51
2022/01/28 06:42:57;;;;;;;6.65;2.15;;;5.30;99.90;;;;;;5053970;28;20480;-48
2022/01/28 06:45:23;;;;;;;12.95;3.47;;;5.20;99.90;;;;;;5054409;28;20036;-49
2022/01/28 06:47:48;;;;;;;9.43;2.03;;;5.10;99.90;;;;;;5054327;28;20079;-52
2022/01/28 06:50:14;;;;;;;7.63;2.10;;;5.10;99.90;;;;;;5054387;28;20064;-53
2022/01/28 06:52:41;;;;;;;12.32;3.33;;;5.00;99.90;;;;;;5054319;28;20124;-48
2022/01/28 06:55:07;;;;;;;2.75;1.58;;;5.00;99.90;;;;;;5054328;28;20396;-52
2022/01/28 06:57:33;;;;;;;12.20;2.33;;;5.00;99.90;;;;;;5054076;28;20036;-54
2022/01/28 06:59:59;;;;;;;12.38;2.78;;;4.90;99.90;;;;;;5054131;28;20447;-50
2022/01/28 07:02:25;;;;;;;19.05;2.22;;;4.90;99.90;;;;;;5052851;28;20021;-52
2022/01/28 07:04:51;;;;;;;8.65;3.47;;;4.90;99.90;;;;;;5052523;28;20488;-51
2022/01/28 07:07:17;;;;;;;15.13;3.33;;;4.90;99.90;;;;;;5054053;28;20044;-51
2022/01/28 07:09:43;;;;;;;10.18;2.60;;;4.90;99.90;;;;;;5053128;28;20051;-50
2022/01/28 07:12:09;;;;;;;14.27;3.58;;;4.90;99.90;;;;;;5052188;28;20396;-48
2022/01/28 07:14:34;;;;;;;11.85;2.53;;;4.90;99.90;;;;;;5053421;28;20032;-49
2022/01/28 07:17:00;;;;;;;12.27;2.45;;;4.90;99.90;;;;;;5052382;28;20032;-51
2022/01/28 07:19:26;;;;;;;5.15;2.38;;;4.90;99.90;;;;;;5051946;28;20048;-52
2022/01/28 07:21:51;;;;;;;8.95;2.50;;;5.00;99.90;;;;;;5053899;28;20047;-50
2022/01/28 07:24:17;;;;;;;8.80;2.20;;;5.00;99.90;;;;;;5053303;28;20025;-54
2022/01/28 07:26:42;;;;;;;10.98;3.17;;;4.90;99.90;;;;;;5052375;28;20112;-53
2022/01/28 07:29:13;;;;;;;9.65;2.13;;;4.90;99.90;;;;;;5053675;28;20032;-55
2022/01/28 07:31:38;;;;;;;9.23;2.70;;;5.00;99.90;;;;;;5054081;28;20528;-53
2022/01/28 07:34:06;;;;;;;9.77;3.55;;;5.00;99.90;;;;;;5053894;28;20036;-52
2022/01/28 07:36:35;;;;;;;9.43;2.53;;;5.00;99.90;;;;;;5054537;28;20071;-54
2022/01/28 07:39:01;;;;;;;12.65;1.92;;;5.10;99.90;;;;;;5054798;28;20029;-52
2022/01/28 07:41:26;;;;;;;10.35;2.78;;;5.10;99.90;;;;;;5052600;28;20029;-50
2022/01/28 07:43:52;;;;;;;8.07;2.20;;;5.00;99.90;;;;;;5054148;28;20025;-52
2022/01/28 07:46:18;;;;;;;16.30;5.05;;;5.00;99.90;;;;;;5036357;28;20027;-50
2022/01/28 07:48:44;;;;;;;9.50;2.42;;;5.10;99.90;;;;;;5054127;28;20029;-50
2022/01/28 07:51:09;;;;;;;8.85;2.70;;;5.00;99.90;;;;;;5053655;28;20032;-50
2022/01/28 07:53:35;;;;;;;18.17;3.03;;;5.10;99.90;;;;;;5053024;28;20025;-51
2022/01/28 07:56:00;;;;;;;13.85;2.50;;;5.10;99.90;;;;;;5053051;28;20077;-52
2022/01/28 07:58:26;;;;;;;10.23;3.13;;;5.10;99.90;;;;;;5051985;28;20025;-51
2022/01/28 08:00:51;;;;;;;9.20;2.83;;;5.10;99.90;;;;;;5053281;28;20021;-52
2022/01/28 08:03:17;;;;;;;11.40;2.50;;;5.20;99.90;;;;;;5053012;28;20116;-51
2022/01/28 08:05:42;;;;;;;14.95;2.78;;;5.30;99.90;;;;;;5052050;28;20078;-51
2022/01/28 08:08:09;;;;;;;17.92;2.67;;;5.40;99.90;;;;;;5053824;28;20032;-54
2022/01/28 08:10:35;;;;;;;6.53;2.47;;;5.40;99.90;;;;;;5053158;28;20017;-51
2022/01/28 08:13:03;;;;;;;13.98;2.85;;;5.50;99.90;;;;;;5052664;28;20036;-54
2022/01/28 08:15:29;;;;;;;13.48;2.92;;;5.60;99.90;;;;;;5052704;28;20017;-54
2022/01/28 08:17:55;;;;;;;11.65;3.25;;;5.70;99.90;;;;;;5052350;28;20025;-52
2022/01/28 08:20:21;;;;;;;8.55;3.05;;;5.60;99.90;;;;;;5052978;28;20023;-53
2022/01/28 08:22:47;;;;;;;13.90;2.90;;;5.50;99.90;;;;;;5051633;28;20069;-53
2022/01/28 08:25:13;;;;;;;10.40;3.03;;;5.50;99.90;;;;;;5052521;28;20017;-51
2022/01/28 08:27:41;;;;;;;13.82;2.95;;;5.50;99.90;;;;;;5038161;28;20022;-53
2022/01/28 08:30:07;;;;;;;11.75;3.00;;;5.60;99.90;;;;;;5050740;28;20024;-52
2022/01/28 08:32:33;;;;;;;13.80;3.10;;;5.70;99.90;;;;;;5052042;28;20021;-51
2022/01/28 08:34:58;;;;;;;15.45;2.72;;;5.80;99.90;;;;;;5047364;28;20171;-52
2022/01/28 08:37:24;;;;;;;10.40;3.25;;;5.80;99.90;;;;;;5050441;28;20045;-49
2022/01/28 08:39:49;;;;;;;8.23;2.95;;;5.70;99.90;;;;;;5051211;28;20033;-50
2022/01/28 08:42:16;;;;;;;6.22;2.28;;;5.70;99.90;;;;;;5051280;28;20476;-47
2022/01/28 08:44:42;;;;;;;9.35;2.40;;;5.70;99.90;;;;;;5046644;28;20013;-51
2022/01/28 08:47:07;;;;;;;14.23;3.05;;;5.70;99.90;;;;;;5032305;28;20031;-48
2022/01/28 08:49:33;;;;;;;6.57;2.38;;;5.70;99.90;;;;;;5033631;28;20040;-49
2022/01/28 08:51:59;;;;;;;12.80;3.08;;;5.70;99.90;;;;;;5050354;28;20086;-52
2022/01/28 08:54:24;;;;;;;9.98;2.88;;;5.70;99.90;;;;;;5046720;28;20108;-47
2022/01/28 08:56:50;;;;;;;15.07;3.50;;;5.90;99.90;;;;;;5048346;28;20028;-49
2022/01/28 08:59:15;;;;;;;14.35;3.08;;;6.00;99.90;;;;;;5051877;28;20106;-50
2022/01/28 09:01:42;;;;;;;6.38;2.38;;;6.10;99.90;;;;;;5051469;28;20508;-49
2022/01/28 09:04:08;;;;;;;7.00;2.80;;;6.00;99.90;;;;;;5051530;28;20029;-48
2022/01/28 09:06:33;;;;;;;9.50;2.72;;;6.00;99.90;;;;;;5050261;28;20021;-49
2022/01/28 09:09:01;;;;;;;10.35;2.72;;;6.20;99.90;;;;;;5051551;28;20526;-48
2022/01/28 09:13:52;;;;;;;10.43;2.80;;;6.50;99.90;;;;;;5051181;28;20468;-49
2022/01/28 09:16:21;;;;;;;19.98;2.88;;;6.60;99.90;;;;;;5051394;28;20536;-48
2022/01/28 09:18:46;;;;;;;31.40;11.20;;;6.60;99.90;;;;;;5050152;28;20097;-50
2022/01/28 09:21:12;;;;;;;29.90;11.45;;;6.50;99.90;;;;;;5051781;28;20496;-49
2022/01/28 09:23:38;;;;;;;10.13;2.72;;;6.40;99.90;;;;;;5051231;28;20025;-53
2022/01/28 09:26:03;;;;;;;10.95;2.92;;;6.50;99.90;;;;;;5051191;28;20044;-49
2022/01/28 09:28:29;;;;;;;10.48;2.92;;;6.50;99.90;;;;;;5051383;28;20092;-52
2022/01/28 09:30:57;;;;;;;9.23;2.47;;;6.80;99.90;;;;;;5051712;28;20025;-50
2022/01/28 09:33:22;;;;;;;17.02;3.95;;;7.60;99.90;;;;;;5050325;28;20035;-50
2022/01/28 09:35:48;;;;;;;12.98;2.28;;;8.10;99.90;;;;;;5050004;28;20037;-49
2022/01/28 09:38:14;;;;;;;12.82;2.50;;;8.30;99.90;;;;;;5051237;28;20032;-50
2022/01/28 09:40:39;;;;;;;15.35;3.50;;;8.10;99.90;;;;;;5051159;28;20021;-50
2022/01/28 09:43:07;;;;;;;18.23;3.35;;;7.90;99.90;;;;;;5050950;28;20029;-51
2022/01/28 09:45:34;;;;;;;7.63;2.08;;;7.70;99.90;;;;;;5051266;28;20047;-51
2022/01/28 09:48:00;;;;;;;16.77;2.72;;;7.50;99.90;;;;;;5051171;28;20032;-52
2022/01/28 09:50:29;;;;;;;4.90;2.10;;;7.30;99.90;;;;;;5051223;28;20025;-48
2022/01/28 09:52:56;;;;;;;13.65;3.58;;;7.20;99.90;;;;;;5049541;28;20021;-51
2022/01/28 09:55:23;;;;;;;12.27;2.42;;;7.20;99.90;;;;;;5051028;28;20037;-49
2022/01/28 09:57:52;;;;;;;9.57;2.60;;;7.20;99.90;;;;;;5049940;28;20024;-48
2022/01/28 10:00:20;;;;;;;13.57;2.40;;;7.20;99.90;;;;;;5051162;28;20029;-50
2022/01/28 10:03:08;;;;;;;8.70;2.85;;;7.10;99.90;;;;;;5050970;28;20458;-48
2022/01/28 10:05:50;;;;;;;15.63;2.35;;;7.10;99.90;;;;;;5049292;28;20016;-53
2022/01/28 10:08:24;;;;;;;11.98;2.72;;;7.20;99.90;;;;;;5050647;28;20044;-53
2022/01/28 10:11:07;;;;;;;8.73;2.20;;;7.20;99.90;;;;;;5050450;28;20024;-49
2022/01/28 10:13:47;;;;;;;11.43;2.70;;;7.20;99.90;;;;;;5050327;28;20032;-50
2022/01/28 10:16:20;;;;;;;14.93;3.65;;;7.20;99.90;;;;;;5049082;28;20025;-47
2022/01/28 10:18:51;;;;;;;10.40;3.05;;;7.30;99.90;;;;;;5049201;28;20618;-48
2022/01/28 10:21:24;;;;;;;13.23;3.10;;;7.20;99.90;;;;;;5050444;28;20032;-52
2022/01/28 10:23:58;;;;;;;8.73;2.65;;;7.20;99.90;;;;;;5049935;28;20108;-48
2022/01/28 10:26:28;;;;;;;8.75;3.70;;;7.20;99.90;;;;;;5050687;28;20096;-48
2022/01/28 10:28:53;;;;;;;5.90;2.65;;;7.20;99.90;;;;;;5047803;28;20028;-52
2022/01/28 10:31:19;;;;;;;27.08;14.35;;;7.20;99.90;;;;;;5050918;28;20032;-50
2022/01/28 10:33:44;;;;;;;8.27;3.28;;;7.00;99.90;;;;;;5050719;28;20512;-51
2022/01/28 10:36:10;;;;;;;11.27;2.55;;;7.00;99.90;;;;;;5050231;28;20024;-52
2022/01/28 10:38:38;;;;;;;12.60;2.22;;;6.90;99.90;;;;;;5048815;28;20032;-53
2022/01/28 10:41:18;;;;;;;14.23;2.67;;;6.80;99.90;;;;;;5050359;28;20083;-49
2022/01/28 10:43:52;;;;;;;12.45;3.17;;;6.90;99.90;;;;;;5049155;28;20018;-50
2022/01/28 10:46:22;;;;;;;11.73;3.22;;;7.10;99.90;;;;;;5051599;28;20024;-50
2022/01/28 10:48:55;;;;;;;12.77;2.30;;;7.10;99.90;;;;;;5052333;28;20102;-58
2022/01/28 10:51:22;;;;;;;8.93;2.75;;;7.10;99.90;;;;;;5045288;28;20032;-56
2022/01/28 10:54:12;;;;;;;10.82;2.80;;;7.10;99.90;;;;;;5048920;28;20029;-58
2022/01/28 10:56:58;;;;;;;14.65;2.30;;;7.20;99.90;;;;;;5045551;28;20033;-56
2022/01/28 10:59:42;;;;;;;10.88;2.47;;;7.20;99.90;;;;;;5042408;28;20562;-57
2022/01/28 11:02:08;;;;;;;13.10;3.13;;;7.10;99.90;;;;;;5034126;28;20489;-53
2022/01/28 11:04:34;;;;;;;13.70;3.30;;;7.70;99.90;;;;;;5033769;28;20025;-51
2022/01/28 11:07:01;;;;;;;11.48;3.95;;;8.10;99.90;;;;;;5048884;28;20067;-53
2022/01/28 11:09:27;;;;;;;8.32;2.97;;;8.60;99.90;;;;;;5053563;28;20072;-55
2022/01/28 11:11:53;;;;;;;11.25;2.60;;;9.00;99.90;;;;;;5039588;28;20064;-57
2022/01/28 11:14:20;;;;;;;12.98;3.58;;;9.20;99.90;;;;;;5032521;28;20025;-58
2022/01/28 11:16:47;;;;;;;7.35;2.55;;;9.30;99.90;;;;;;5051049;28;20032;-56
2022/01/28 11:19:19;;;;;;;12.75;2.42;;;9.30;99.90;;;;;;5053255;28;20376;-52
2022/01/28 11:22:07;;;;;;;20.73;2.58;;;9.30;99.90;;;;;;5048953;28;20115;-54
2022/01/28 11:25:06;;;;;;;10.27;2.78;;;9.20;99.90;;;;;;5038343;28;20115;-54
2022/01/28 11:27:34;;;;;;;7.80;2.58;;;9.00;99.90;;;;;;5052524;28;20029;-55
2022/01/28 11:30:18;;;;;;;12.13;1.85;;;8.90;99.90;;;;;;5053446;28;20074;-53
2022/01/28 11:32:59;;;;;;;12.30;3.20;;;8.70;99.90;;;;;;5044548;28;20512;-56
2022/01/28 11:35:26;;;;;;;14.63;3.35;;;8.50;99.90;;;;;;5034079;28;20029;-52
2022/01/28 11:37:54;;;;;;;9.60;2.67;;;8.50;99.90;;;;;;5048779;28;20036;-52
2022/01/28 11:40:19;;;;;;;10.23;1.90;;;8.30;99.90;;;;;;5039579;28;20108;-51
2022/01/28 11:42:45;;;;;;;13.73;2.45;;;8.10;99.90;;;;;;5045644;28;20108;-51
2022/01/28 11:45:11;;;;;;;12.05;3.92;;;8.00;99.90;;;;;;5032433;28;20030;-52
2022/01/28 11:47:54;;;;;;;35.63;18.58;;;7.90;99.90;;;;;;5042818;28;20493;-51
2022/01/28 11:50:22;;;;;;;21.88;10.07;;;8.10;99.90;;;;;;5040063;28;20033;-54
2022/01/28 11:52:56;;;;;;;9.65;2.90;;;8.00;99.90;;;;;;5033379;28;20048;-53
2022/01/28 11:55:23;;;;;;;10.73;3.15;;;7.90;99.90;;;;;;5043469;28;20074;-50
2022/01/28 11:57:59;;;;;;;12.07;3.28;;;8.00;99.90;;;;;;5042933;28;20056;-54
2022/01/28 12:00:30;;;;;;;8.25;2.08;;;8.00;99.90;;;;;;5038503;28;20041;-56
2022/01/28 12:02:57;;;;;;;14.63;3.70;;;8.00;99.90;;;;;;5045264;28;20025;-50
2022/01/28 12:05:25;;;;;;;8.77;2.28;;;8.10;99.90;;;;;;5031346;28;20116;-50
2022/01/28 12:07:52;;;;;;;13.60;3.35;;;8.10;99.90;;;;;;5046264;28;20021;-55
2022/01/28 12:10:18;;;;;;;10.63;2.80;;;8.10;99.90;;;;;;5036959;28;20108;-56
2022/01/28 12:12:45;;;;;;;8.73;2.38;;;8.10;99.90;;;;;;5031660;28;20026;-52
2022/01/28 12:15:17;;;;;;;9.98;2.95;;;8.20;99.90;;;;;;5038167;28;20527;-54
2022/01/28 12:17:46;;;;;;;15.10;3.83;;;8.30;99.90;;;;;;5039226;28;20037;-55
2022/01/28 12:20:22;;;;;;;8.50;2.42;;;8.50;99.90;;;;;;5048107;28;20493;-58
2022/01/28 12:23:00;;;;;;;;;;;8.40;99.90;;;;;;5036653;28;20059;-54
2022/01/28 12:25:35;;;;;;;6.50;1.77;;;8.50;99.90;;;;;;5037617;28;19904;-54
2022/01/28 12:28:12;;;;;;;8.63;2.15;;;8.50;99.60;;;;;;5045100;28;20030;-53
2022/01/28 12:30:39;;;;;;;12.15;2.60;;;8.40;99.70;;;;;;5030481;28;20025;-55
2022/01/28 12:33:04;;;;;;;12.77;1.90;;;8.40;99.90;;;;;;5039850;28;20025;-55
2022/01/28 12:35:30;;;;;;;16.17;3.03;;;8.50;99.30;;;;;;5038646;28;20036;-58
2022/01/28 12:38:01;;;;;;;11.57;3.83;;;8.50;99.00;;;;;;5038207;28;20017;-56
2022/01/28 12:40:35;;;;;;;4.97;2.08;;;8.50;98.40;;;;;;5039367;28;20032;-55
2022/01/28 12:43:01;;;;;;;9.05;2.13;;;8.40;98.30;;;;;;5043319;28;20032;-55
2022/01/28 12:45:27;;;;;;;10.70;3.65;;;8.40;98.60;;;;;;5038197;28;21751;-55
2022/01/28 12:47:53;;;;;;;14.00;3.08;;;8.30;98.60;;;;;;5033163;28;20071;-53
2022/01/28 12:50:19;;;;;;;11.13;3.33;;;8.20;98.60;;;;;;5034453;28;20033;-55
2022/01/28 12:52:46;;;;;;;10.13;2.67;;;8.30;98.50;;;;;;5045293;28;20492;-55
2022/01/28 12:55:12;;;;;;;7.20;2.15;;;8.30;98.60;;;;;;5030306;28;20029;-58
2022/01/28 12:57:42;;;;;;;11.88;3.47;;;8.30;98.90;;;;;;5046414;28;20029;-58
2022/01/28 13:00:08;;;;;;;16.23;2.30;;;8.30;98.80;;;;;;5050982;22;20047;-49
2022/01/28 13:02:34;;;;;;;17.73;3.33;;;8.30;99.50;;;;;;5038933;28;20044;-51
2022/01/28 13:10:21;;;;;;;14.80;2.78;;;8.40;98.90;;;;;;5045870;28;20075;-49
2022/01/28 13:12:47;;;;;;;17.38;2.95;;;8.50;98.20;;;;;;5049854;28;20040;-52
2022/01/28 13:15:14;;;;;;;8.30;2.58;;;8.50;98.70;;;;;;5051550;28;20266;-45
2022/01/28 13:17:50;;;;;;;12.15;2.50;;;8.50;98.80;;;;;;5050454;28;20060;-41
2022/01/28 13:20:16;;;;;;;14.73;2.90;;;8.60;98.90;;;;;;5051367;28;20137;-47
2022/01/28 13:22:49;;;;;;;11.68;2.55;;;8.70;98.50;;;;;;5051689;28;20502;-52
2022/01/28 13:25:20;;;;;;;12.27;3.92;;;8.70;98.90;;;;;;5051624;28;20021;-47
2022/01/28 13:27:48;;;;;;;16.80;3.10;;;8.40;98.60;;;;;;5051552;28;20100;-51
2022/01/28 13:30:15;;;;;;;13.45;2.60;;;8.40;98.80;;;;;;5051332;28;20492;-40
2022/01/28 13:32:45;;;;;;;11.02;3.47;;;8.40;98.90;;;;;;5051384;28;20021;-48
2022/01/28 13:35:20;;;;;;;16.95;2.50;;;8.40;98.80;;;;;;5041817;28;20092;-46
2022/01/28 13:37:50;;;;;;;18.45;2.97;;;8.40;99.10;;;;;;5031060;28;20408;-43
2022/01/28 13:40:19;;;;;;;9.55;2.80;;;8.50;99.00;;;;;;5034535;28;20489;-50
2022/01/28 13:43:05;;;;;;;11.50;2.95;;;8.60;98.40;;;;;;5031091;28;20107;-45
2022/01/28 13:45:35;;;;;;;17.02;2.63;;;8.60;97.70;;;;;;5031341;28;20104;-43
2022/01/28 13:48:02;;;;;;;7.40;2.22;;;8.60;97.90;;;;;;5031147;28;20014;-50
2022/01/28 13:50:30;;;;;;;8.20;2.38;;;8.60;98.10;;;;;;5030883;28;20048;-48
2022/01/28 13:56:04;;;;;;;15.02;2.90;;;8.70;97.60;;;;;;5031360;28;20404;-49
2022/01/28 13:58:47;;;;;;;11.43;2.13;;;8.80;97.60;;;;;;5031290;28;20037;-48
2022/01/28 14:01:12;;;;;;;9.75;2.28;;;8.90;97.30;;;;;;5031241;28;20024;-46
2022/01/28 14:03:48;;;;;;;10.07;2.55;;;8.80;96.50;;;;;;5030731;28;20029;-50
2022/01/28 14:06:20;;;;;;;9.88;2.28;;;8.80;96.40;;;;;;5031221;28;20026;-49
2022/01/28 14:08:52;;;;;;;17.55;2.42;;;8.80;96.40;;;;;;5031163;28;20444;-49
2022/01/28 14:11:22;;;;;;;8.30;2.03;;;8.60;96.60;;;;;;5031221;28;20523;-51
2022/01/28 14:14:24;;;;;;;15.68;2.85;;;8.60;97.00;;;;;;5030955;28;20029;-50
2022/01/28 14:16:54;;;;;;;6.30;2.00;;;8.70;96.60;;;;;;5031219;28;20029;-47
2022/01/28 14:19:21;;;;;;;8.27;1.90;;;8.60;97.00;;;;;;5031440;28;20025;-49